sensor_id;sensor_type;location;lat;lon;timestamp;P1;durP1;ratioP1;P2;durP2;ratioP2
3601;SDS011;1815;50.950;6.920;2023-12-20T00:01:00;5.55;;;5.05;;
3601;SDS011;1815;50.950;6.920;2023-12-20T00:03:26;5.57;;;5.00;;
3601;SDS011;1815;50.950;6.920;2023-12-20T00:05:52;6.27;;;5.67;;
3601;SDS011;1815;50.950;6.920;2023-12-20T00:08:17;6.20;;;5.60;;
3601;SDS011;1815;50.950;6.920;2023-12-20T00:10:43;6.27;;;5.77;;
3601;SDS011;1815;50.950;6.920;2023-12-20T00:13:09;5.70;;;5.20;;
3601;SDS011;1815;50.950;6.920;2023-12-20T00:15:36;5.15;;;4.65;;
3601;SDS011;1815;50.950;6.920;2023-12-20T00:18:01;5.80;;;4.97;;
3601;SDS011;1815;50.950;6.920;2023-12-20T00:20:28;5.70;;;5.00;;
3601;SDS011;1815;50.950;6.920;2023-12-20T00:22:57;6.32;;;5.72;;
3601;SDS011;1815;50.950;6.920;2023-12-20T00:25:23;5.15;;;4.72;;
3601;SDS011;1815;50.950;6.920;2023-12-20T00:27:49;5.18;;;4.38;;
3601;SDS011;1815;50.950;6.920;2023-12-20T00:30:15;5.47;;;4.93;;
3601;SDS011;1815;50.950;6.920;2023-12-20T00:32:41;4.53;;;4.13;;
3601;SDS011;1815;50.950;6.920;2023-12-20T00:35:14;4.03;;;3.63;;
3601;SDS011;1815;50.950;6.920;2023-12-20T00:37:40;7.15;;;5.38;;
3601;SDS011;1815;50.950;6.920;2023-12-20T00:40:06;4.70;;;4.30;;
3601;SDS011;1815;50.950;6.920;2023-12-20T00:42:32;4.00;;;3.60;;
3601;SDS011;1815;50.950;6.920;2023-12-20T00:44:58;3.92;;;3.35;;
3601;SDS011;1815;50.950;6.920;2023-12-20T00:47:25;3.15;;;2.80;;
3601;SDS011;1815;50.950;6.920;2023-12-20T00:49:50;3.53;;;2.63;;
3601;SDS011;1815;50.950;6.920;2023-12-20T00:52:16;4.00;;;3.13;;
3601;SDS011;1815;50.950;6.920;2023-12-20T00:54:43;2.83;;;2.35;;
3601;SDS011;1815;50.950;6.920;2023-12-20T00:57:09;2.63;;;2.38;;
3601;SDS011;1815;50.950;6.920;2023-12-20T00:59:35;3.33;;;2.90;;
3601;SDS011;1815;50.950;6.920;2023-12-20T01:02:01;3.60;;;2.63;;
3601;SDS011;1815;50.950;6.920;2023-12-20T01:04:27;5.67;;;3.20;;
3601;SDS011;1815;50.950;6.920;2023-12-20T01:06:53;4.33;;;2.77;;
3601;SDS011;1815;50.950;6.920;2023-12-20T01:09:19;5.83;;;2.77;;
3601;SDS011;1815;50.950;6.920;2023-12-20T01:11:44;4.20;;;2.60;;
3601;SDS011;1815;50.950;6.920;2023-12-20T01:14:13;4.28;;;3.00;;
3601;SDS011;1815;50.950;6.920;2023-12-20T01:16:38;5.23;;;3.33;;
3601;SDS011;1815;50.950;6.920;2023-12-20T01:19:04;3.00;;;2.47;;
3601;SDS011;1815;50.950;6.920;2023-12-20T01:21:30;4.50;;;3.33;;
3601;SDS011;1815;50.950;6.920;2023-12-20T01:23:55;4.53;;;2.87;;
3601;SDS011;1815;50.950;6.920;2023-12-20T01:26:21;4.93;;;4.23;;
3601;SDS011;1815;50.950;6.920;2023-12-20T01:28:46;5.93;;;3.83;;
3601;SDS011;1815;50.950;6.920;2023-12-20T01:31:12;5.10;;;3.97;;
3601;SDS011;1815;50.950;6.920;2023-12-20T01:33:38;4.77;;;3.03;;
3601;SDS011;1815;50.950;6.920;2023-12-20T01:36:04;5.40;;;3.60;;
3601;SDS011;1815;50.950;6.920;2023-12-20T01:38:29;6.73;;;4.90;;
3601;SDS011;1815;50.950;6.920;2023-12-20T01:40:55;8.20;;;5.07;;
3601;SDS011;1815;50.950;6.920;2023-12-20T01:43:21;6.77;;;4.80;;
3601;SDS011;1815;50.950;6.920;2023-12-20T01:45:47;6.63;;;5.50;;
3601;SDS011;1815;50.950;6.920;2023-12-20T01:48:13;7.30;;;5.85;;
3601;SDS011;1815;50.950;6.920;2023-12-20T01:50:41;6.78;;;6.07;;
3601;SDS011;1815;50.950;6.920;2023-12-20T01:53:09;7.90;;;5.90;;
3601;SDS011;1815;50.950;6.920;2023-12-20T01:55:38;8.65;;;6.32;;
3601;SDS011;1815;50.950;6.920;2023-12-20T01:58:05;10.77;;;7.30;;
3601;SDS011;1815;50.950;6.920;2023-12-20T02:00:32;9.45;;;7.32;;
3601;SDS011;1815;50.950;6.920;2023-12-20T02:03:02;8.07;;;7.22;;
3601;SDS011;1815;50.950;6.920;2023-12-20T02:05:31;8.65;;;6.50;;
3601;SDS011;1815;50.950;6.920;2023-12-20T02:07:59;7.78;;;6.03;;
3601;SDS011;1815;50.950;6.920;2023-12-20T02:10:25;8.13;;;5.60;;
3601;SDS011;1815;50.950;6.920;2023-12-20T02:12:51;8.93;;;5.72;;
3601;SDS011;1815;50.950;6.920;2023-12-20T02:15:17;7.85;;;5.57;;
3601;SDS011;1815;50.950;6.920;2023-12-20T02:17:43;8.30;;;5.53;;
3601;SDS011;1815;50.950;6.920;2023-12-20T02:20:10;6.65;;;5.25;;
3601;SDS011;1815;50.950;6.920;2023-12-20T02:22:36;10.10;;;4.53;;
3601;SDS011;1815;50.950;6.920;2023-12-20T02:25:01;10.40;;;5.70;;
3601;SDS011;1815;50.950;6.920;2023-12-20T02:27:27;7.97;;;4.87;;
3601;SDS011;1815;50.950;6.920;2023-12-20T02:29:54;7.00;;;3.78;;
3601;SDS011;1815;50.950;6.920;2023-12-20T02:32:20;9.87;;;3.97;;
3601;SDS011;1815;50.950;6.920;2023-12-20T02:34:48;13.77;;;2.95;;
3601;SDS011;1815;50.950;6.920;2023-12-20T02:37:14;5.47;;;2.92;;
3601;SDS011;1815;50.950;6.920;2023-12-20T02:39:41;8.00;;;3.05;;
3601;SDS011;1815;50.950;6.920;2023-12-20T02:42:06;8.70;;;4.93;;
3601;SDS011;1815;50.950;6.920;2023-12-20T02:44:32;5.00;;;2.60;;
3601;SDS011;1815;50.950;6.920;2023-12-20T02:46:59;9.85;;;5.57;;
3601;SDS011;1815;50.950;6.920;2023-12-20T02:49:24;7.67;;;2.50;;
3601;SDS011;1815;50.950;6.920;2023-12-20T02:51:50;4.57;;;3.43;;
3601;SDS011;1815;50.950;6.920;2023-12-20T02:54:16;5.00;;;1.87;;
3601;SDS011;1815;50.950;6.920;2023-12-20T02:56:42;5.77;;;1.70;;
3601;SDS011;1815;50.950;6.920;2023-12-20T02:59:07;8.83;;;2.07;;
3601;SDS011;1815;50.950;6.920;2023-12-20T03:01:39;7.97;;;2.05;;
3601;SDS011;1815;50.950;6.920;2023-12-20T03:04:08;5.05;;;1.50;;
3601;SDS011;1815;50.950;6.920;2023-12-20T03:06:33;5.43;;;1.20;;
3601;SDS011;1815;50.950;6.920;2023-12-20T03:08:59;9.70;;;1.70;;
3601;SDS011;1815;50.950;6.920;2023-12-20T03:11:28;5.80;;;1.17;;
3601;SDS011;1815;50.950;6.920;2023-12-20T03:13:54;6.57;;;1.65;;
3601;SDS011;1815;50.950;6.920;2023-12-20T03:16:20;7.93;;;1.33;;
3601;SDS011;1815;50.950;6.920;2023-12-20T03:18:46;8.17;;;1.70;;
3601;SDS011;1815;50.950;6.920;2023-12-20T03:21:11;3.80;;;1.20;;
3601;SDS011;1815;50.950;6.920;2023-12-20T03:23:37;3.37;;;1.13;;
3601;SDS011;1815;50.950;6.920;2023-12-20T03:26:03;9.13;;;1.40;;
3601;SDS011;1815;50.950;6.920;2023-12-20T03:28:32;6.97;;;2.10;;
3601;SDS011;1815;50.950;6.920;2023-12-20T03:30:58;4.60;;;1.20;;
3601;SDS011;1815;50.950;6.920;2023-12-20T03:33:24;7.20;;;1.67;;
3601;SDS011;1815;50.950;6.920;2023-12-20T03:35:50;9.73;;;1.97;;
3601;SDS011;1815;50.950;6.920;2023-12-20T03:38:15;5.77;;;1.57;;
3601;SDS011;1815;50.950;6.920;2023-12-20T03:40:41;5.07;;;1.07;;
3601;SDS011;1815;50.950;6.920;2023-12-20T03:43:07;8.70;;;1.60;;
3601;SDS011;1815;50.950;6.920;2023-12-20T03:45:33;6.10;;;1.40;;
3601;SDS011;1815;50.950;6.920;2023-12-20T03:47:58;8.40;;;1.50;;
3601;SDS011;1815;50.950;6.920;2023-12-20T03:50:24;5.23;;;1.50;;
3601;SDS011;1815;50.950;6.920;2023-12-20T03:52:51;6.43;;;1.65;;
3601;SDS011;1815;50.950;6.920;2023-12-20T03:55:16;7.87;;;1.77;;
3601;SDS011;1815;50.950;6.920;2023-12-20T03:57:42;4.67;;;1.90;;
3601;SDS011;1815;50.950;6.920;2023-12-20T04:00:08;5.40;;;1.63;;
3601;SDS011;1815;50.950;6.920;2023-12-20T04:02:37;6.55;;;1.77;;
3601;SDS011;1815;50.950;6.920;2023-12-20T04:05:04;7.75;;;1.63;;
3601;SDS011;1815;50.950;6.920;2023-12-20T04:07:30;8.65;;;2.22;;
3601;SDS011;1815;50.950;6.920;2023-12-20T04:09:56;8.70;;;2.00;;
3601;SDS011;1815;50.950;6.920;2023-12-20T04:12:22;8.17;;;1.93;;
3601;SDS011;1815;50.950;6.920;2023-12-20T04:14:47;8.85;;;2.10;;
3601;SDS011;1815;50.950;6.920;2023-12-20T04:17:14;9.67;;;2.30;;
3601;SDS011;1815;50.950;6.920;2023-12-20T04:19:41;8.40;;;2.03;;
3601;SDS011;1815;50.950;6.920;2023-12-20T04:22:07;5.95;;;2.13;;
3601;SDS011;1815;50.950;6.920;2023-12-20T04:24:32;7.10;;;2.33;;
3601;SDS011;1815;50.950;6.920;2023-12-20T04:26:58;6.27;;;1.57;;
3601;SDS011;1815;50.950;6.920;2023-12-20T04:29:24;8.93;;;2.27;;
3601;SDS011;1815;50.950;6.920;2023-12-20T04:31:49;6.00;;;1.70;;
3601;SDS011;1815;50.950;6.920;2023-12-20T04:34:17;7.45;;;2.42;;
3601;SDS011;1815;50.950;6.920;2023-12-20T04:36:43;4.88;;;1.90;;
3601;SDS011;1815;50.950;6.920;2023-12-20T04:39:09;8.30;;;3.00;;
3601;SDS011;1815;50.950;6.920;2023-12-20T04:41:35;10.23;;;2.22;;
3601;SDS011;1815;50.950;6.920;2023-12-20T04:44:01;9.37;;;2.43;;
3601;SDS011;1815;50.950;6.920;2023-12-20T04:46:27;6.80;;;2.05;;
3601;SDS011;1815;50.950;6.920;2023-12-20T04:48:53;7.07;;;2.23;;
3601;SDS011;1815;50.950;6.920;2023-12-20T04:51:18;8.90;;;3.03;;
3601;SDS011;1815;50.950;6.920;2023-12-20T04:53:44;9.17;;;2.60;;
3601;SDS011;1815;50.950;6.920;2023-12-20T04:56:10;10.10;;;2.80;;
3601;SDS011;1815;50.950;6.920;2023-12-20T04:58:35;9.47;;;2.37;;
3601;SDS011;1815;50.950;6.920;2023-12-20T05:01:01;6.80;;;2.63;;
3601;SDS011;1815;50.950;6.920;2023-12-20T05:03:28;7.30;;;2.38;;
3601;SDS011;1815;50.950;6.920;2023-12-20T05:05:54;9.00;;;3.00;;
3601;SDS011;1815;50.950;6.920;2023-12-20T05:08:19;8.10;;;2.33;;
3601;SDS011;1815;50.950;6.920;2023-12-20T05:10:45;5.70;;;1.87;;
3601;SDS011;1815;50.950;6.920;2023-12-20T05:13:11;8.87;;;2.37;;
3601;SDS011;1815;50.950;6.920;2023-12-20T05:15:36;5.17;;;2.10;;
3601;SDS011;1815;50.950;6.920;2023-12-20T05:18:02;7.70;;;1.63;;
3601;SDS011;1815;50.950;6.920;2023-12-20T05:20:28;11.27;;;2.37;;
3601;SDS011;1815;50.950;6.920;2023-12-20T05:22:54;5.83;;;2.67;;
3601;SDS011;1815;50.950;6.920;2023-12-20T05:25:19;8.53;;;2.43;;
3601;SDS011;1815;50.950;6.920;2023-12-20T05:27:45;7.80;;;2.70;;
3601;SDS011;1815;50.950;6.920;2023-12-20T05:30:11;6.13;;;2.47;;
3601;SDS011;1815;50.950;6.920;2023-12-20T05:32:37;9.30;;;2.33;;
3601;SDS011;1815;50.950;6.920;2023-12-20T05:35:02;5.47;;;2.13;;
3601;SDS011;1815;50.950;6.920;2023-12-20T05:37:28;5.63;;;2.87;;
3601;SDS011;1815;50.950;6.920;2023-12-20T05:39:54;5.50;;;2.00;;
3601;SDS011;1815;50.950;6.920;2023-12-20T05:42:19;7.63;;;2.30;;
3601;SDS011;1815;50.950;6.920;2023-12-20T05:44:45;6.57;;;1.90;;
3601;SDS011;1815;50.950;6.920;2023-12-20T05:47:11;7.30;;;3.20;;
3601;SDS011;1815;50.950;6.920;2023-12-20T05:49:37;5.83;;;2.20;;
3601;SDS011;1815;50.950;6.920;2023-12-20T05:52:02;9.67;;;2.80;;
3601;SDS011;1815;50.950;6.920;2023-12-20T05:54:28;4.90;;;2.75;;
3601;SDS011;1815;50.950;6.920;2023-12-20T05:56:54;6.93;;;1.93;;
3601;SDS011;1815;50.950;6.920;2023-12-20T05:59:20;4.47;;;2.53;;
3601;SDS011;1815;50.950;6.920;2023-12-20T06:01:46;9.80;;;2.73;;
3601;SDS011;1815;50.950;6.920;2023-12-20T06:04:12;13.30;;;3.58;;
3601;SDS011;1815;50.950;6.920;2023-12-20T06:06:41;11.60;;;2.97;;
3601;SDS011;1815;50.950;6.920;2023-12-20T06:09:07;7.78;;;2.83;;
3601;SDS011;1815;50.950;6.920;2023-12-20T06:11:33;6.07;;;4.53;;
3601;SDS011;1815;50.950;6.920;2023-12-20T06:13:59;8.70;;;2.40;;
3601;SDS011;1815;50.950;6.920;2023-12-20T06:16:25;10.93;;;2.60;;
3601;SDS011;1815;50.950;6.920;2023-12-20T06:18:50;9.73;;;2.07;;
3601;SDS011;1815;50.950;6.920;2023-12-20T06:21:16;4.87;;;1.90;;
3601;SDS011;1815;50.950;6.920;2023-12-20T06:23:42;13.07;;;3.20;;
3601;SDS011;1815;50.950;6.920;2023-12-20T06:26:07;7.67;;;2.10;;
3601;SDS011;1815;50.950;6.920;2023-12-20T06:28:33;10.87;;;2.33;;
3601;SDS011;1815;50.950;6.920;2023-12-20T06:30:59;5.43;;;1.90;;
3601;SDS011;1815;50.950;6.920;2023-12-20T06:33:25;5.68;;;3.00;;
3601;SDS011;1815;50.950;6.920;2023-12-20T06:35:51;7.07;;;2.65;;
3601;SDS011;1815;50.950;6.920;2023-12-20T06:38:18;15.00;;;2.90;;
3601;SDS011;1815;50.950;6.920;2023-12-20T06:40:44;12.90;;;2.75;;
3601;SDS011;1815;50.950;6.920;2023-12-20T06:43:10;10.73;;;3.85;;
3601;SDS011;1815;50.950;6.920;2023-12-20T06:45:37;9.20;;;2.50;;
3601;SDS011;1815;50.950;6.920;2023-12-20T06:48:03;10.63;;;2.20;;
3601;SDS011;1815;50.950;6.920;2023-12-20T06:50:29;8.55;;;3.47;;
3601;SDS011;1815;50.950;6.920;2023-12-20T06:52:54;7.97;;;1.73;;
3601;SDS011;1815;50.950;6.920;2023-12-20T06:55:20;11.33;;;2.43;;
3601;SDS011;1815;50.950;6.920;2023-12-20T06:57:47;11.43;;;2.87;;
3601;SDS011;1815;50.950;6.920;2023-12-20T07:00:13;6.97;;;2.97;;
3601;SDS011;1815;50.950;6.920;2023-12-20T07:02:39;7.85;;;2.08;;
3601;SDS011;1815;50.950;6.920;2023-12-20T07:05:05;9.13;;;3.30;;
3601;SDS011;1815;50.950;6.920;2023-12-20T07:07:31;7.50;;;2.25;;
3601;SDS011;1815;50.950;6.920;2023-12-20T07:09:57;11.60;;;2.90;;
3601;SDS011;1815;50.950;6.920;2023-12-20T07:12:22;8.80;;;2.37;;
3601;SDS011;1815;50.950;6.920;2023-12-20T07:14:48;8.57;;;2.87;;
3601;SDS011;1815;50.950;6.920;2023-12-20T07:17:14;5.50;;;1.87;;
3601;SDS011;1815;50.950;6.920;2023-12-20T07:19:41;12.45;;;2.90;;
3601;SDS011;1815;50.950;6.920;2023-12-20T07:22:07;13.02;;;3.28;;
3601;SDS011;1815;50.950;6.920;2023-12-20T07:24:33;6.55;;;2.75;;
3601;SDS011;1815;50.950;6.920;2023-12-20T07:27:00;11.55;;;3.10;;
3601;SDS011;1815;50.950;6.920;2023-12-20T07:29:27;8.38;;;2.53;;
3601;SDS011;1815;50.950;6.920;2023-12-20T07:31:53;11.88;;;3.10;;
3601;SDS011;1815;50.950;6.920;2023-12-20T07:34:19;7.95;;;2.33;;
3601;SDS011;1815;50.950;6.920;2023-12-20T07:36:48;5.70;;;2.58;;
3601;SDS011;1815;50.950;6.920;2023-12-20T07:39:14;12.87;;;3.63;;
3601;SDS011;1815;50.950;6.920;2023-12-20T07:41:40;11.15;;;3.00;;
3601;SDS011;1815;50.950;6.920;2023-12-20T07:44:12;8.05;;;3.38;;
3601;SDS011;1815;50.950;6.920;2023-12-20T07:46:38;5.87;;;2.43;;
3601;SDS011;1815;50.950;6.920;2023-12-20T07:49:04;7.50;;;3.20;;
3601;SDS011;1815;50.950;6.920;2023-12-20T07:51:32;8.95;;;2.90;;
3601;SDS011;1815;50.950;6.920;2023-12-20T07:53:58;8.45;;;3.20;;
3601;SDS011;1815;50.950;6.920;2023-12-20T07:56:24;7.13;;;2.97;;
3601;SDS011;1815;50.950;6.920;2023-12-20T07:58:49;10.93;;;2.73;;
3601;SDS011;1815;50.950;6.920;2023-12-20T08:01:15;8.00;;;2.97;;
3601;SDS011;1815;50.950;6.920;2023-12-20T08:03:43;11.88;;;3.90;;
3601;SDS011;1815;50.950;6.920;2023-12-20T08:06:09;10.33;;;4.60;;
3601;SDS011;1815;50.950;6.920;2023-12-20T08:08:34;7.73;;;2.83;;
3601;SDS011;1815;50.950;6.920;2023-12-20T08:11:00;10.63;;;4.60;;
3601;SDS011;1815;50.950;6.920;2023-12-20T08:13:27;11.43;;;3.57;;
3601;SDS011;1815;50.950;6.920;2023-12-20T08:15:53;10.45;;;5.65;;
3601;SDS011;1815;50.950;6.920;2023-12-20T08:18:19;5.07;;;2.40;;
3601;SDS011;1815;50.950;6.920;2023-12-20T08:20:44;6.80;;;2.77;;
3601;SDS011;1815;50.950;6.920;2023-12-20T08:23:12;8.73;;;3.37;;
3601;SDS011;1815;50.950;6.920;2023-12-20T08:25:40;10.20;;;3.05;;
3601;SDS011;1815;50.950;6.920;2023-12-20T08:28:12;12.55;;;2.72;;
3601;SDS011;1815;50.950;6.920;2023-12-20T08:30:44;6.38;;;2.55;;
3601;SDS011;1815;50.950;6.920;2023-12-20T08:33:14;9.60;;;3.10;;
3601;SDS011;1815;50.950;6.920;2023-12-20T08:35:40;7.45;;;3.08;;
3601;SDS011;1815;50.950;6.920;2023-12-20T08:38:06;10.33;;;3.07;;
3601;SDS011;1815;50.950;6.920;2023-12-20T08:40:32;6.00;;;2.10;;
3601;SDS011;1815;50.950;6.920;2023-12-20T08:42:57;6.50;;;2.20;;
3601;SDS011;1815;50.950;6.920;2023-12-20T08:45:23;5.77;;;2.57;;
3601;SDS011;1815;50.950;6.920;2023-12-20T08:47:49;8.57;;;2.80;;
3601;SDS011;1815;50.950;6.920;2023-12-20T08:50:15;9.53;;;2.40;;
3601;SDS011;1815;50.950;6.920;2023-12-20T08:52:41;10.87;;;3.17;;
3601;SDS011;1815;50.950;6.920;2023-12-20T08:55:07;10.40;;;3.70;;
3601;SDS011;1815;50.950;6.920;2023-12-20T08:57:33;9.68;;;3.03;;
3601;SDS011;1815;50.950;6.920;2023-12-20T08:59:59;9.03;;;2.70;;
3601;SDS011;1815;50.950;6.920;2023-12-20T09:02:24;6.30;;;2.90;;
3601;SDS011;1815;50.950;6.920;2023-12-20T09:04:50;10.27;;;2.67;;
3601;SDS011;1815;50.950;6.920;2023-12-20T09:07:25;8.10;;;2.60;;
3601;SDS011;1815;50.950;6.920;2023-12-20T09:09:52;6.78;;;3.25;;
3601;SDS011;1815;50.950;6.920;2023-12-20T09:12:18;7.03;;;2.60;;
3601;SDS011;1815;50.950;6.920;2023-12-20T09:14:48;5.20;;;2.58;;
3601;SDS011;1815;50.950;6.920;2023-12-20T09:17:16;7.40;;;4.10;;
3601;SDS011;1815;50.950;6.920;2023-12-20T09:19:43;9.60;;;3.10;;
3601;SDS011;1815;50.950;6.920;2023-12-20T09:22:09;11.40;;;3.60;;
3601;SDS011;1815;50.950;6.920;2023-12-20T09:24:35;10.25;;;2.47;;
3601;SDS011;1815;50.950;6.920;2023-12-20T09:27:01;6.70;;;2.43;;
3601;SDS011;1815;50.950;6.920;2023-12-20T09:29:27;8.38;;;3.00;;
3601;SDS011;1815;50.950;6.920;2023-12-20T09:31:53;7.73;;;1.93;;
3601;SDS011;1815;50.950;6.920;2023-12-20T09:34:19;8.53;;;2.03;;
3601;SDS011;1815;50.950;6.920;2023-12-20T09:36:44;7.07;;;2.07;;
3601;SDS011;1815;50.950;6.920;2023-12-20T09:39:15;10.32;;;2.20;;
3601;SDS011;1815;50.950;6.920;2023-12-20T09:42:03;4.88;;;1.50;;
3601;SDS011;1815;50.950;6.920;2023-12-20T09:44:31;6.28;;;1.70;;
3601;SDS011;1815;50.950;6.920;2023-12-20T09:47:02;9.07;;;2.85;;
3601;SDS011;1815;50.950;6.920;2023-12-20T09:49:29;7.55;;;2.40;;
3601;SDS011;1815;50.950;6.920;2023-12-20T09:51:56;12.38;;;2.88;;
3601;SDS011;1815;50.950;6.920;2023-12-20T09:54:22;10.82;;;2.47;;
3601;SDS011;1815;50.950;6.920;2023-12-20T09:56:54;8.57;;;2.78;;
3601;SDS011;1815;50.950;6.920;2023-12-20T09:59:20;12.20;;;2.20;;
3601;SDS011;1815;50.950;6.920;2023-12-20T10:01:47;5.83;;;2.00;;
3601;SDS011;1815;50.950;6.920;2023-12-20T10:04:13;8.35;;;2.50;;
3601;SDS011;1815;50.950;6.920;2023-12-20T10:06:41;6.65;;;2.30;;
3601;SDS011;1815;50.950;6.920;2023-12-20T10:09:08;5.10;;;1.70;;
3601;SDS011;1815;50.950;6.920;2023-12-20T10:11:35;7.35;;;2.25;;
3601;SDS011;1815;50.950;6.920;2023-12-20T10:14:08;6.22;;;1.50;;
3601;SDS011;1815;50.950;6.920;2023-12-20T10:16:36;6.25;;;1.70;;
3601;SDS011;1815;50.950;6.920;2023-12-20T10:19:01;10.83;;;2.70;;
3601;SDS011;1815;50.950;6.920;2023-12-20T10:21:27;8.67;;;3.00;;
3601;SDS011;1815;50.950;6.920;2023-12-20T10:23:54;6.87;;;2.33;;
3601;SDS011;1815;50.950;6.920;2023-12-20T10:26:24;4.43;;;2.33;;
3601;SDS011;1815;50.950;6.920;2023-12-20T10:28:53;9.45;;;2.25;;
3601;SDS011;1815;50.950;6.920;2023-12-20T10:31:26;11.65;;;3.20;;
3601;SDS011;1815;50.950;6.920;2023-12-20T10:33:52;8.85;;;3.05;;
3601;SDS011;1815;50.950;6.920;2023-12-20T10:36:18;11.30;;;3.40;;
3601;SDS011;1815;50.950;6.920;2023-12-20T10:38:44;10.30;;;3.73;;
3601;SDS011;1815;50.950;6.920;2023-12-20T10:41:11;7.20;;;2.60;;
3601;SDS011;1815;50.950;6.920;2023-12-20T10:43:42;11.93;;;3.13;;
3601;SDS011;1815;50.950;6.920;2023-12-20T10:46:08;6.85;;;2.90;;
3601;SDS011;1815;50.950;6.920;2023-12-20T10:48:34;7.80;;;3.43;;
3601;SDS011;1815;50.950;6.920;2023-12-20T10:51:01;7.22;;;2.85;;
3601;SDS011;1815;50.950;6.920;2023-12-20T10:53:27;5.35;;;2.70;;
3601;SDS011;1815;50.950;6.920;2023-12-20T10:55:53;11.40;;;3.07;;
3601;SDS011;1815;50.950;6.920;2023-12-20T10:58:21;8.38;;;3.35;;
3601;SDS011;1815;50.950;6.920;2023-12-20T11:00:49;6.95;;;2.65;;
3601;SDS011;1815;50.950;6.920;2023-12-20T11:03:21;9.90;;;3.17;;
3601;SDS011;1815;50.950;6.920;2023-12-20T11:08:27;4.32;;;1.65;;
3601;SDS011;1815;50.950;6.920;2023-12-20T11:16:22;7.53;;;2.63;;
3601;SDS011;1815;50.950;6.920;2023-12-20T11:18:48;6.53;;;1.60;;
3601;SDS011;1815;50.950;6.920;2023-12-20T11:21:16;5.22;;;1.83;;
3601;SDS011;1815;50.950;6.920;2023-12-20T11:23:42;5.30;;;1.40;;
3601;SDS011;1815;50.950;6.920;2023-12-20T11:26:08;8.07;;;2.00;;
3601;SDS011;1815;50.950;6.920;2023-12-20T11:31:02;9.68;;;2.45;;
3601;SDS011;1815;50.950;6.920;2023-12-20T11:33:36;6.27;;;2.00;;
3601;SDS011;1815;50.950;6.920;2023-12-20T11:36:02;7.20;;;1.83;;
3601;SDS011;1815;50.950;6.920;2023-12-20T11:38:36;6.30;;;1.90;;
3601;SDS011;1815;50.950;6.920;2023-12-20T11:41:05;7.90;;;1.70;;
3601;SDS011;1815;50.950;6.920;2023-12-20T11:43:32;8.73;;;1.58;;
3601;SDS011;1815;50.950;6.920;2023-12-20T11:46:04;6.97;;;2.00;;
3601;SDS011;1815;50.950;6.920;2023-12-20T11:48:30;9.88;;;3.20;;
3601;SDS011;1815;50.950;6.920;2023-12-20T11:50:57;4.45;;;1.83;;
3601;SDS011;1815;50.950;6.920;2023-12-20T11:53:22;7.07;;;1.50;;
3601;SDS011;1815;50.950;6.920;2023-12-20T11:55:49;7.03;;;2.27;;
3601;SDS011;1815;50.950;6.920;2023-12-20T11:58:14;12.13;;;3.05;;
3601;SDS011;1815;50.950;6.920;2023-12-20T12:00:41;9.70;;;3.25;;
3601;SDS011;1815;50.950;6.920;2023-12-20T12:03:09;10.15;;;2.55;;
3601;SDS011;1815;50.950;6.920;2023-12-20T12:05:35;5.32;;;2.33;;
3601;SDS011;1815;50.950;6.920;2023-12-20T12:08:01;11.30;;;2.80;;
3601;SDS011;1815;50.950;6.920;2023-12-20T12:10:28;6.00;;;2.33;;
3601;SDS011;1815;50.950;6.920;2023-12-20T12:12:55;9.52;;;2.40;;
3601;SDS011;1815;50.950;6.920;2023-12-20T12:15:20;10.87;;;2.30;;
3601;SDS011;1815;50.950;6.920;2023-12-20T12:17:56;8.73;;;2.80;;
3601;SDS011;1815;50.950;6.920;2023-12-20T12:20:22;8.13;;;2.65;;
3601;SDS011;1815;50.950;6.920;2023-12-20T12:23:01;8.27;;;2.58;;
3601;SDS011;1815;50.950;6.920;2023-12-20T12:25:29;6.53;;;2.13;;
3601;SDS011;1815;50.950;6.920;2023-12-20T12:27:58;6.85;;;2.05;;
3601;SDS011;1815;50.950;6.920;2023-12-20T12:30:27;6.20;;;1.90;;
3601;SDS011;1815;50.950;6.920;2023-12-20T12:32:53;7.63;;;2.67;;
3601;SDS011;1815;50.950;6.920;2023-12-20T12:35:20;5.80;;;2.80;;
3601;SDS011;1815;50.950;6.920;2023-12-20T12:37:47;6.95;;;3.05;;
3601;SDS011;1815;50.950;6.920;2023-12-20T12:40:13;5.57;;;2.50;;
3601;SDS011;1815;50.950;6.920;2023-12-20T12:42:41;7.47;;;2.97;;
3601;SDS011;1815;50.950;6.920;2023-12-20T12:45:08;12.43;;;2.90;;
3601;SDS011;1815;50.950;6.920;2023-12-20T12:47:36;7.78;;;2.90;;
3601;SDS011;1815;50.950;6.920;2023-12-20T12:50:04;6.38;;;2.50;;
3601;SDS011;1815;50.950;6.920;2023-12-20T12:52:30;10.02;;;3.55;;
3601;SDS011;1815;50.950;6.920;2023-12-20T12:54:57;7.57;;;2.78;;
3601;SDS011;1815;50.950;6.920;2023-12-20T12:57:23;9.43;;;2.88;;
3601;SDS011;1815;50.950;6.920;2023-12-20T12:59:49;7.30;;;2.60;;
3601;SDS011;1815;50.950;6.920;2023-12-20T13:02:15;10.63;;;3.17;;
3601;SDS011;1815;50.950;6.920;2023-12-20T13:04:42;10.90;;;2.87;;
3601;SDS011;1815;50.950;6.920;2023-12-20T13:07:08;8.52;;;2.63;;
3601;SDS011;1815;50.950;6.920;2023-12-20T13:09:38;5.50;;;1.80;;
3601;SDS011;1815;50.950;6.920;2023-12-20T13:12:04;5.88;;;2.10;;
3601;SDS011;1815;50.950;6.920;2023-12-20T13:14:32;8.10;;;2.40;;
3601;SDS011;1815;50.950;6.920;2023-12-20T13:16:59;8.05;;;2.08;;
3601;SDS011;1815;50.950;6.920;2023-12-20T13:19:26;4.65;;;1.83;;
3601;SDS011;1815;50.950;6.920;2023-12-20T13:21:52;8.23;;;2.27;;
3601;SDS011;1815;50.950;6.920;2023-12-20T13:24:18;7.70;;;2.88;;
3601;SDS011;1815;50.950;6.920;2023-12-20T13:26:43;7.80;;;2.13;;
3601;SDS011;1815;50.950;6.920;2023-12-20T13:29:09;6.33;;;1.97;;
3601;SDS011;1815;50.950;6.920;2023-12-20T13:31:35;8.53;;;2.30;;
3601;SDS011;1815;50.950;6.920;2023-12-20T13:34:01;8.18;;;2.58;;
3601;SDS011;1815;50.950;6.920;2023-12-20T13:36:27;11.50;;;2.10;;
3601;SDS011;1815;50.950;6.920;2023-12-20T13:38:53;7.93;;;2.80;;
3601;SDS011;1815;50.950;6.920;2023-12-20T13:41:19;5.90;;;2.03;;
3601;SDS011;1815;50.950;6.920;2023-12-20T13:43:45;3.60;;;1.77;;
3601;SDS011;1815;50.950;6.920;2023-12-20T13:46:11;9.43;;;2.50;;
3601;SDS011;1815;50.950;6.920;2023-12-20T13:48:37;5.63;;;2.53;;
3601;SDS011;1815;50.950;6.920;2023-12-20T13:51:03;8.73;;;3.00;;
3601;SDS011;1815;50.950;6.920;2023-12-20T13:53:29;7.28;;;2.30;;
3601;SDS011;1815;50.950;6.920;2023-12-20T13:55:54;7.43;;;2.03;;
3601;SDS011;1815;50.950;6.920;2023-12-20T13:58:20;4.60;;;1.70;;
3601;SDS011;1815;50.950;6.920;2023-12-20T14:00:46;8.90;;;3.17;;
3601;SDS011;1815;50.950;6.920;2023-12-20T14:03:11;7.97;;;2.13;;
3601;SDS011;1815;50.950;6.920;2023-12-20T14:05:37;5.70;;;2.57;;
3601;SDS011;1815;50.950;6.920;2023-12-20T14:08:03;9.00;;;2.33;;
3601;SDS011;1815;50.950;6.920;2023-12-20T14:10:29;8.80;;;2.80;;
3601;SDS011;1815;50.950;6.920;2023-12-20T14:12:55;19.47;;;4.07;;
3601;SDS011;1815;50.950;6.920;2023-12-20T14:15:21;5.67;;;2.27;;
3601;SDS011;1815;50.950;6.920;2023-12-20T14:17:47;6.72;;;2.47;;
3601;SDS011;1815;50.950;6.920;2023-12-20T14:20:12;10.17;;;2.67;;
3601;SDS011;1815;50.950;6.920;2023-12-20T14:22:38;12.63;;;4.03;;
3601;SDS011;1815;50.950;6.920;2023-12-20T14:25:10;8.35;;;3.05;;
3601;SDS011;1815;50.950;6.920;2023-12-20T14:27:37;7.38;;;2.28;;
3601;SDS011;1815;50.950;6.920;2023-12-20T14:30:03;7.47;;;2.00;;
3601;SDS011;1815;50.950;6.920;2023-12-20T14:32:31;7.97;;;3.13;;
3601;SDS011;1815;50.950;6.920;2023-12-20T14:34:57;5.80;;;2.60;;
3601;SDS011;1815;50.950;6.920;2023-12-20T14:37:23;5.43;;;2.60;;
3601;SDS011;1815;50.950;6.920;2023-12-20T14:39:48;9.77;;;3.37;;
3601;SDS011;1815;50.950;6.920;2023-12-20T14:42:14;9.40;;;6.10;;
3601;SDS011;1815;50.950;6.920;2023-12-20T14:44:40;10.83;;;4.83;;
3601;SDS011;1815;50.950;6.920;2023-12-20T14:47:06;8.73;;;5.03;;
3601;SDS011;1815;50.950;6.920;2023-12-20T14:49:32;7.50;;;4.20;;
3601;SDS011;1815;50.950;6.920;2023-12-20T14:51:57;10.57;;;2.93;;
3601;SDS011;1815;50.950;6.920;2023-12-20T14:54:23;4.68;;;2.20;;
3601;SDS011;1815;50.950;6.920;2023-12-20T14:56:53;8.13;;;2.30;;
3601;SDS011;1815;50.950;6.920;2023-12-20T14:59:18;9.02;;;2.38;;
3601;SDS011;1815;50.950;6.920;2023-12-20T15:01:44;6.27;;;2.10;;
3601;SDS011;1815;50.950;6.920;2023-12-20T15:04:10;7.87;;;2.13;;
3601;SDS011;1815;50.950;6.920;2023-12-20T15:06:36;5.33;;;1.97;;
3601;SDS011;1815;50.950;6.920;2023-12-20T15:09:02;5.28;;;1.58;;
3601;SDS011;1815;50.950;6.920;2023-12-20T15:11:30;8.32;;;2.67;;
3601;SDS011;1815;50.950;6.920;2023-12-20T15:13:56;6.78;;;1.80;;
3601;SDS011;1815;50.950;6.920;2023-12-20T15:16:23;7.43;;;1.90;;
3601;SDS011;1815;50.950;6.920;2023-12-20T15:18:50;4.75;;;1.50;;